Time;durP1;ratioP1;P1;durP2;ratioP2;P2;SDS_P1;SDS_P2;PMS_P1;PMS_P2;Temp;Humidity;BMP_temperature;BMP_pressure;BME280_temperature;BME280_humidity;BME280_pressure;Samples;Min_cycle;Max_cycle;Signal;HPM_P1;HPM_P2
2022/04/29 00:00:00;;;;;;;22.17;7.00;;;5.70;99.90;;;;;;5012564;28;19922;-74
2022/04/29 00:02:27;;;;;;;18.65;6.85;;;5.70;99.90;;;;;;4995138;28;20054;-74
2022/04/29 00:04:53;;;;;;;21.23;7.03;;;5.70;99.90;;;;;;4995050;28;20162;-73
2022/04/29 00:07:18;;;;;;;25.63;7.45;;;5.60;99.90;;;;;;5012493;28;20081;-74
2022/04/29 00:09:44;;;;;;;24.02;7.20;;;5.70;99.90;;;;;;5012275;28;20041;-73
2022/04/29 00:12:10;;;;;;;28.35;7.95;;;5.70;99.90;;;;;;5012160;28;20046;-73
2022/04/29 00:14:36;;;;;;;27.38;8.88;;;5.60;99.90;;;;;;5012587;28;20042;-74
2022/04/29 00:17:02;;;;;;;32.95;9.13;;;5.60;99.90;;;;;;5012178;28;20057;-74
2022/04/29 00:19:28;;;;;;;23.30;7.80;;;5.60;99.90;;;;;;5012170;28;20092;-74
2022/04/29 00:21:54;;;;;;;23.05;7.22;;;5.60;99.90;;;;;;5012542;28;20541;-74
2022/04/29 00:24:20;;;;;;;27.55;7.30;;;5.60;99.90;;;;;;4994785;28;20054;-73
2022/04/29 00:26:46;;;;;;;18.90;6.72;;;5.60;99.90;;;;;;5012255;28;20129;-73
2022/04/29 00:29:11;;;;;;;28.83;7.38;;;5.50;99.90;;;;;;4995185;28;20417;-73
2022/04/29 00:31:38;;;;;;;21.73;7.40;;;5.60;99.90;;;;;;4994548;28;20532;-73
2022/04/29 00:34:04;;;;;;;24.10;7.03;;;5.50;99.90;;;;;;4994870;28;20053;-73
2022/04/29 00:36:30;;;;;;;24.40;6.75;;;5.50;99.90;;;;;;5011754;28;20518;-74
2022/04/29 00:38:55;;;;;;;25.33;8.07;;;5.50;99.90;;;;;;4994294;28;20041;-73
2022/04/29 00:41:23;;;;;;;25.20;7.05;;;5.40;99.90;;;;;;5012035;28;20172;-73
2022/04/29 00:44:08;;;;;;;25.92;6.25;;;5.30;99.90;;;;;;5012339;28;20434;-73
2022/04/29 00:46:37;;;;;;;24.02;7.43;;;5.40;99.90;;;;;;5006215;28;20038;-73
2022/04/29 00:49:05;;;;;;;24.50;7.53;;;5.30;99.90;;;;;;4994585;28;20045;-74
2022/04/29 00:51:31;;;;;;;;;;;5.40;99.90;;;;;;5012466;28;20096;-74
2022/04/29 00:53:57;;;;;;;21.98;6.80;;;5.30;99.90;;;;;;5014362;28;19921;-73
2022/04/29 00:56:28;;;;;;;21.65;6.80;;;5.20;99.90;;;;;;5015556;28;20425;-73
2022/04/29 00:59:09;;;;;;;22.92;7.72;;;5.20;99.90;;;;;;5014724;28;20344;-74
2022/04/29 01:01:37;;;;;;;17.75;6.80;;;5.10;99.90;;;;;;5015782;28;20057;-74
2022/04/29 01:04:04;;;;;;;23.77;7.15;;;5.10;99.90;;;;;;4997993;28;20054;-73
2022/04/29 01:06:31;;;;;;;17.17;5.97;;;5.10;99.90;;;;;;4981913;28;20050;-73
2022/04/29 01:08:57;;;;;;;23.83;7.38;;;5.10;99.90;;;;;;5014360;28;20049;-73
2022/04/29 01:11:26;;;;;;;21.63;7.10;;;5.10;99.90;;;;;;5015559;28;20427;-73
2022/04/29 01:13:53;;;;;;;22.02;7.25;;;5.20;99.90;;;;;;4982022;28;20312;-74
2022/04/29 01:16:20;;;;;;;21.75;6.35;;;5.10;99.90;;;;;;5015174;28;20056;-74
2022/04/29 01:18:48;;;;;;;25.15;7.65;;;5.10;99.90;;;;;;5015679;28;20046;-74
2022/04/29 01:21:14;;;;;;;21.70;6.05;;;5.10;99.90;;;;;;5015138;28;20042;-73
2022/04/29 01:23:41;;;;;;;20.40;6.45;;;5.10;99.90;;;;;;4981645;28;20569;-73
2022/04/29 01:26:07;;;;;;;23.05;6.05;;;5.10;99.90;;;;;;5015365;28;20049;-73
2022/04/29 01:28:35;;;;;;;14.27;5.35;;;5.00;99.90;;;;;;5015209;28;20203;-73
2022/04/29 01:31:03;;;;;;;19.35;5.65;;;5.00;99.90;;;;;;5013878;28;20058;-74
2022/04/29 01:33:32;;;;;;;19.25;6.53;;;5.00;99.90;;;;;;5014895;28;20057;-73
2022/04/29 01:35:58;;;;;;;20.58;6.30;;;5.00;99.90;;;;;;4981067;28;20163;-73
2022/04/29 01:38:23;;;;;;;19.35;7.10;;;5.00;99.90;;;;;;4997825;28;20123;-74
2022/04/29 01:40:49;;;;;;;32.13;9.25;;;5.00;99.90;;;;;;4981489;28;20069;-74
2022/04/29 01:43:15;;;;;;;30.23;7.65;;;5.00;99.90;;;;;;5013624;28;20506;-72
2022/04/29 01:45:41;;;;;;;24.42;7.35;;;5.00;99.90;;;;;;4997319;28;20111;-74
2022/04/29 01:48:06;;;;;;;29.45;7.47;;;5.00;99.90;;;;;;4981332;28;20060;-73
2022/04/29 01:50:32;;;;;;;29.35;6.97;;;4.90;99.90;;;;;;5014808;28;20042;-74
2022/04/29 01:52:58;;;;;;;19.33;6.03;;;5.00;99.90;;;;;;4981159;28;20172;-75
2022/04/29 01:55:23;;;;;;;18.58;5.88;;;4.90;99.90;;;;;;5014911;28;20046;-75
2022/04/29 01:57:50;;;;;;;17.45;6.82;;;4.90;99.90;;;;;;5014864;28;20085;-74
2022/04/29 02:00:17;;;;;;;19.45;7.82;;;4.90;99.90;;;;;;5014570;28;20056;-75
2022/04/29 02:02:43;;;;;;;19.38;6.63;;;4.80;99.90;;;;;;4997833;28;20042;-73
2022/04/29 02:05:09;;;;;;;22.65;6.93;;;4.80;99.90;;;;;;5013010;28;20050;-74
2022/04/29 02:07:35;;;;;;;30.23;6.47;;;4.80;99.90;;;;;;4996731;28;20427;-74
2022/04/29 02:10:01;;;;;;;21.00;6.68;;;4.80;99.90;;;;;;5014365;28;20046;-74
2022/04/29 02:12:26;;;;;;;21.77;6.97;;;4.80;99.90;;;;;;5014124;28;20049;-74
2022/04/29 02:14:52;;;;;;;27.88;6.90;;;4.80;99.90;;;;;;5014205;28;20080;-73
2022/04/29 02:17:18;;;;;;;21.92;6.80;;;4.80;99.90;;;;;;4996873;28;20081;-73
2022/04/29 02:19:44;;;;;;;26.38;7.22;;;4.80;99.90;;;;;;5014344;28;20061;-74
2022/04/29 02:22:10;;;;;;;19.58;7.00;;;4.80;99.90;;;;;;5013805;28;20045;-74
2022/04/29 02:24:37;;;;;;;21.02;6.60;;;4.80;99.90;;;;;;5014171;28;20096;-75
2022/04/29 02:27:04;;;;;;;23.25;6.50;;;4.80;99.90;;;;;;5014123;28;20050;-74
2022/04/29 02:29:30;;;;;;;21.85;7.43;;;4.80;99.90;;;;;;4996286;28;20520;-73
2022/04/29 02:31:57;;;;;;;21.08;7.03;;;4.90;99.90;;;;;;5014032;28;20046;-74
2022/04/29 02:34:23;;;;;;;23.55;6.88;;;4.80;99.90;;;;;;4997318;28;20335;-73
2022/04/29 02:36:49;;;;;;;32.30;7.93;;;4.80;99.90;;;;;;5013435;28;20042;-74
2022/04/29 02:39:15;;;;;;;22.27;7.70;;;4.70;99.90;;;;;;5014020;28;20049;-74
2022/04/29 02:41:41;;;;;;;23.27;7.35;;;4.80;99.90;;;;;;4986249;28;20047;-74
2022/04/29 02:44:07;;;;;;;25.25;7.05;;;4.80;99.90;;;;;;4994382;28;20066;-74
2022/04/29 02:46:33;;;;;;;25.52;7.85;;;4.70;99.90;;;;;;4994141;28;20054;-74
2022/04/29 02:48:59;;;;;;;27.20;7.30;;;4.70;99.90;;;;;;4994039;28;20479;-74
2022/04/29 02:51:25;;;;;;;25.83;7.43;;;4.70;99.90;;;;;;4993994;28;20050;-74
2022/04/29 02:53:51;;;;;;;23.33;6.68;;;4.70;99.90;;;;;;4993034;28;20049;-75
2022/04/29 02:56:18;;;;;;;20.58;6.90;;;4.70;99.90;;;;;;4992793;28;20057;-74
2022/04/29 02:58:44;;;;;;;29.30;7.45;;;4.70;99.90;;;;;;4977111;28;20451;-74
2022/04/29 03:01:09;;;;;;;21.25;7.47;;;4.70;99.90;;;;;;4977025;28;20099;-74
2022/04/29 03:03:35;;;;;;;25.35;7.40;;;4.70;99.90;;;;;;4976746;28;20126;-75
2022/04/29 03:06:01;;;;;;;26.73;7.88;;;4.70;99.90;;;;;;4993854;28;20046;-75
2022/04/29 03:08:27;;;;;;;24.10;8.85;;;4.70;99.90;;;;;;4993846;28;20050;-75
2022/04/29 03:10:53;;;;;;;29.95;8.05;;;4.80;99.90;;;;;;4993726;28;20184;-75
2022/04/29 03:13:18;;;;;;;26.00;7.07;;;4.80;99.90;;;;;;4992476;28;20050;-72
2022/04/29 03:15:44;;;;;;;27.30;7.38;;;4.80;99.90;;;;;;4976227;28;20071;-72
2022/04/29 03:18:21;;;;;;;30.33;7.38;;;4.80;99.90;;;;;;4976559;28;20069;-72
2022/04/29 03:20:53;;;;;;;25.58;7.55;;;4.80;99.90;;;;;;4976411;28;20054;-73
2022/04/29 03:23:19;;;;;;;26.35;8.20;;;4.80;99.90;;;;;;4993433;28;20057;-73
2022/04/29 03:25:45;;;;;;;26.20;8.27;;;4.80;99.90;;;;;;4993449;28;20061;-73
2022/04/29 03:28:11;;;;;;;26.23;7.50;;;4.70;99.90;;;;;;4993406;28;20078;-73
2022/04/29 03:30:37;;;;;;;23.23;7.95;;;4.70;99.90;;;;;;4960588;28;20062;-73
2022/04/29 03:33:04;;;;;;;27.00;8.40;;;4.70;99.90;;;;;;4993356;28;20390;-74
2022/04/29 03:35:30;;;;;;;;;;;4.70;99.90;;;;;;4976563;28;20149;-74
2022/04/29 03:37:56;;;;;;;26.67;7.40;;;4.60;99.90;;;;;;4991869;28;20334;-75
2022/04/29 03:40:25;;;;;;;21.85;7.95;;;4.50;99.90;;;;;;4975775;28;20710;-73
2022/04/29 03:42:53;;;;;;;27.27;8.43;;;4.50;99.90;;;;;;5011606;28;20401;-74
2022/04/29 03:45:20;;;;;;;27.67;8.13;;;4.50;99.90;;;;;;5012876;28;20557;-73
2022/04/29 03:47:46;;;;;;;20.50;7.30;;;4.40;99.90;;;;;;5012887;28;20128;-73
2022/04/29 03:50:12;;;;;;;24.67;7.68;;;4.40;99.90;;;;;;5013187;28;20140;-74
2022/04/29 03:52:48;;;;;;;31.15;8.02;;;4.40;99.90;;;;;;5012654;28;20049;-73
2022/04/29 03:55:15;;;;;;;26.17;7.43;;;4.40;99.90;;;;;;5012715;28;20042;-73
2022/04/29 03:57:42;;;;;;;27.42;7.65;;;4.40;99.90;;;;;;5012677;28;20061;-73
2022/04/29 04:00:08;;;;;;;34.08;8.77;;;4.40;99.90;;;;;;5013094;28;20088;-74
2022/04/29 04:02:34;;;;;;;24.02;8.27;;;4.40;99.90;;;;;;5012708;28;20054;-73
2022/04/29 04:05:00;;;;;;;25.17;8.90;;;4.40;99.90;;;;;;4994944;28;20327;-73
2022/04/29 04:07:26;;;;;;;29.15;7.95;;;4.40;99.90;;;;;;5012388;28;20061;-73
2022/04/29 04:09:51;;;;;;;26.10;8.18;;;4.40;99.90;;;;;;4995054;28;20362;-74
2022/04/29 04:12:17;;;;;;;21.15;7.68;;;4.40;99.90;;;;;;5012538;28;20046;-73
2022/04/29 04:14:43;;;;;;;27.75;8.05;;;4.40;99.90;;;;;;5012497;28;20120;-74
2022/04/29 04:17:09;;;;;;;25.92;7.47;;;4.40;99.90;;;;;;5012184;28;20351;-73
2022/04/29 04:19:35;;;;;;;26.20;7.57;;;4.40;99.90;;;;;;4994836;28;20382;-73
2022/04/29 04:22:02;;;;;;;25.65;7.72;;;4.50;99.90;;;;;;4994367;28;20057;-74
2022/04/29 04:24:28;;;;;;;31.23;8.25;;;4.50;99.90;;;;;;5012285;28;20056;-73
2022/04/29 04:26:53;;;;;;;28.95;7.57;;;4.50;99.90;;;;;;4994810;28;20124;-73
2022/04/29 04:29:19;;;;;;;32.22;10.13;;;4.50;99.90;;;;;;5016492;28;20153;-73
2022/04/29 04:31:47;;;;;;;28.42;7.82;;;4.50;99.90;;;;;;4998831;28;20103;-75
2022/04/29 04:36:57;;;;;;;26.50;9.57;;;4.50;99.90;;;;;;5016107;28;20054;-74
2022/04/29 04:39:23;;;;;;;23.05;8.02;;;4.60;99.90;;;;;;4998956;28;20050;-74
2022/04/29 04:41:49;;;;;;;27.15;9.07;;;4.60;99.90;;;;;;5030922;28;20112;-73
2022/04/29 04:44:14;;;;;;;25.80;8.43;;;4.60;99.90;;;;;;5016616;28;20115;-73
2022/04/29 04:46:40;;;;;;;25.85;8.30;;;4.60;99.90;;;;;;5016481;28;20045;-74
2022/04/29 04:49:06;;;;;;;31.98;9.88;;;4.70;99.90;;;;;;5016060;28;20050;-73
2022/04/29 04:51:32;;;;;;;23.98;8.25;;;4.70;99.90;;;;;;5015847;28;20157;-76
2022/04/29 04:53:58;;;;;;;28.50;8.15;;;4.70;99.90;;;;;;5014870;28;20128;-75
2022/04/29 04:56:24;;;;;;;28.48;7.10;;;4.80;99.90;;;;;;5015777;28;20125;-75
2022/04/29 04:58:50;;;;;;;33.17;8.02;;;4.90;99.90;;;;;;5015833;28;20084;-75
2022/04/29 05:01:15;;;;;;;27.40;7.38;;;5.00;99.90;;;;;;4998346;28;20060;-74
2022/04/29 05:03:43;;;;;;;25.33;7.00;;;5.10;99.90;;;;;;5015741;28;20056;-74
2022/04/29 05:06:09;;;;;;;29.65;7.25;;;5.20;99.90;;;;;;5015292;28;20050;-73
2022/04/29 05:08:34;;;;;;;26.80;9.50;;;5.30;99.90;;;;;;4999102;28;20088;-73
2022/04/29 05:11:00;;;;;;;25.80;8.07;;;5.40;99.90;;;;;;5015265;28;20072;-74
2022/04/29 05:13:26;;;;;;;25.50;8.02;;;5.50;99.90;;;;;;5030927;28;20050;-74
2022/04/29 05:15:51;;;;;;;31.77;8.55;;;5.50;99.90;;;;;;4998104;28;20041;-73
2022/04/29 05:18:17;;;;;;;22.35;6.72;;;5.70;99.90;;;;;;5015911;28;20046;-74
2022/04/29 05:20:43;;;;;;;23.98;7.75;;;5.70;99.90;;;;;;5015938;28;20161;-74
2022/04/29 05:23:08;;;;;;;23.38;7.47;;;5.80;99.90;;;;;;4998243;28;20049;-75
2022/04/29 05:25:35;;;;;;;24.17;7.00;;;5.80;99.90;;;;;;4998935;28;20054;-74
2022/04/29 05:28:02;;;;;;;27.23;8.07;;;5.90;99.90;;;;;;5015695;28;20532;-75
2022/04/29 05:30:28;;;;;;;;;;;6.00;99.90;;;;;;5015724;28;20548;-74
2022/04/29 05:32:54;;;;;;;22.65;7.35;;;6.10;99.90;;;;;;5015342;28;19979;-73
2022/04/29 05:35:20;;;;;;;26.48;7.32;;;6.30;99.90;;;;;;5015346;28;20046;-74
2022/04/29 05:37:46;;;;;;;26.05;7.45;;;6.40;99.90;;;;;;4997527;28;20114;-74
2022/04/29 05:42:56;;;;;;;19.33;6.55;;;6.70;99.90;;;;;;5012324;28;20057;-73
2022/04/29 05:45:22;;;;;;;21.55;6.50;;;6.80;99.90;;;;;;5030252;28;20041;-74
2022/04/29 05:47:48;;;;;;;18.73;6.43;;;6.90;99.90;;;;;;4997769;28;20056;-74
2022/04/29 05:50:13;;;;;;;18.92;6.25;;;6.90;99.90;;;;;;5015430;28;20095;-74
2022/04/29 05:52:39;;;;;;;19.30;6.95;;;6.90;99.90;;;;;;5014957;28;20050;-75
2022/04/29 05:55:05;;;;;;;21.10;6.72;;;6.80;99.90;;;;;;5013909;28;20092;-73
2022/04/29 05:57:31;;;;;;;20.40;6.93;;;6.90;99.90;;;;;;5014863;28;20042;-74
2022/04/29 05:59:58;;;;;;;22.25;6.13;;;6.80;99.90;;;;;;5030001;28;20542;-74
2022/04/29 06:02:25;;;;;;;16.20;5.78;;;6.90;99.90;;;;;;4997929;28;20199;-75
2022/04/29 06:04:51;;;;;;;17.92;6.00;;;7.00;99.90;;;;;;5014559;28;20102;-74
2022/04/29 06:07:17;;;;;;;21.25;6.47;;;7.00;99.90;;;;;;5015141;28;20117;-73
2022/04/29 06:09:43;;;;;;;20.70;5.95;;;7.00;99.90;;;;;;5014649;28;20050;-74
2022/04/29 06:12:09;;;;;;;22.10;6.45;;;6.90;99.90;;;;;;4997028;28;20050;-75
2022/04/29 06:14:36;;;;;;;17.00;5.65;;;7.00;99.90;;;;;;5014509;28;20092;-75
2022/04/29 06:17:02;;;;;;;23.23;6.03;;;7.20;99.90;;;;;;5014540;28;20052;-73
2022/04/29 06:19:27;;;;;;;18.98;5.97;;;7.20;99.90;;;;;;5014857;28;20045;-76
2022/04/29 06:21:53;;;;;;;17.55;6.30;;;7.30;99.90;;;;;;5029544;28;20050;-74
2022/04/29 06:24:19;;;;;;;23.58;5.45;;;7.30;99.90;;;;;;5014604;28;20049;-74
2022/04/29 06:26:45;;;;;;;19.00;7.15;;;7.40;99.90;;;;;;5030074;28;20459;-75
2022/04/29 06:29:10;;;;;;;24.98;5.50;;;7.50;99.90;;;;;;5012782;28;20050;-73
2022/04/29 06:31:36;;;;;;;21.88;6.80;;;7.60;99.90;;;;;;5029240;28;20068;-73
2022/04/29 06:34:02;;;;;;;18.58;6.03;;;7.60;99.90;;;;;;4997051;28;20157;-74
2022/04/29 06:36:28;;;;;;;26.00;6.10;;;7.70;99.90;;;;;;5013923;28;20050;-75
2022/04/29 06:38:54;;;;;;;19.23;6.60;;;7.80;99.90;;;;;;5014176;28;20038;-74
2022/04/29 06:41:19;;;;;;;17.70;5.50;;;7.80;99.90;;;;;;5013852;28;20073;-74
2022/04/29 06:43:45;;;;;;;20.60;6.50;;;7.80;99.90;;;;;;4996953;28;20070;-75
2022/04/29 06:46:11;;;;;;;20.98;5.72;;;7.90;99.90;;;;;;4997088;28;20050;-76
2022/04/29 06:48:37;;;;;;;21.93;6.27;;;8.00;99.90;;;;;;4996590;28;20152;-75
2022/04/29 06:51:03;;;;;;;20.95;6.50;;;8.10;99.90;;;;;;5012814;28;20038;-76
2022/04/29 06:53:29;;;;;;;18.25;6.32;;;8.20;99.90;;;;;;5014058;28;20089;-75
2022/04/29 06:55:55;;;;;;;18.75;6.78;;;8.20;99.90;;;;;;5013868;28;20050;-76
2022/04/29 06:58:21;;;;;;;22.58;6.85;;;8.20;99.90;;;;;;5013815;28;20046;-76
2022/04/29 07:00:46;;;;;;;21.65;6.70;;;8.30;99.90;;;;;;5013820;28;20121;-74
2022/04/29 07:03:12;;;;;;;23.38;8.10;;;8.10;99.90;;;;;;5013538;28;20536;-76
2022/04/29 07:05:39;;;;;;;23.90;7.93;;;8.10;99.90;;;;;;5012598;28;20085;-75
2022/04/29 07:08:06;;;;;;;26.33;8.13;;;8.10;99.90;;;;;;5013477;28;20050;-76
2022/04/29 07:10:32;;;;;;;27.73;7.93;;;8.30;99.90;;;;;;5013205;28;20050;-75
2022/04/29 07:13:04;;;;;;;21.88;7.30;;;8.10;99.90;;;;;;5087699;27;20459;-75
2022/04/29 07:15:30;;;;;;;17.55;7.32;;;8.20;99.90;;;;;;5088717;28;20055;-75
2022/04/29 07:17:56;;;;;;;19.02;7.45;;;8.30;99.90;;;;;;5067867;28;20561;-75
2022/04/29 07:20:22;;;;;;;30.63;7.55;;;8.40;99.90;;;;;;5068616;28;20048;-75
2022/04/29 07:22:49;;;;;;;22.45;6.47;;;8.50;99.90;;;;;;5065838;28;20515;-75
2022/04/29 07:25:15;;;;;;;20.77;6.60;;;8.70;99.90;;;;;;5068475;28;20076;-77
2022/04/29 07:27:41;;;;;;;19.92;6.63;;;8.90;99.90;;;;;;5068143;28;20053;-74
2022/04/29 07:30:10;;;;;;;19.00;6.30;;;9.00;99.90;;;;;;5066695;28;20386;-75
2022/04/29 07:32:36;;;;;;;13.07;5.32;;;8.80;99.90;;;;;;5066628;28;20051;-77
2022/04/29 07:43:15;;;;;;;18.00;7.68;;;8.90;99.90;;;;;;5066290;28;20053;-75
2022/04/29 07:45:42;;;;;;;16.60;6.20;;;8.80;99.90;;;;;;5067989;28;20183;-76
2022/04/29 07:48:08;;;;;;;16.88;6.18;;;8.90;99.90;;;;;;5065597;28;20055;-74
2022/04/29 07:50:35;;;;;;;18.20;5.90;;;8.90;99.90;;;;;;5068366;28;20522;-75
2022/04/29 07:53:02;;;;;;;15.60;5.20;;;9.20;99.90;;;;;;5064572;28;20136;-75
2022/04/29 07:55:29;;;;;;;18.38;7.10;;;9.30;99.90;;;;;;5067873;28;20048;-76
2022/04/29 07:57:55;;;;;;;18.13;6.53;;;9.20;99.90;;;;;;5066736;28;20067;-75
2022/04/29 08:00:22;;;;;;;15.73;6.47;;;9.30;99.90;;;;;;5067944;28;20099;-76
2022/04/29 08:02:48;;;;;;;15.00;5.70;;;9.00;99.90;;;;;;5067283;28;20045;-76
2022/04/29 08:05:14;;;;;;;15.30;6.40;;;9.30;99.90;;;;;;5067377;28;20080;-77
2022/04/29 08:07:40;;;;;;;18.77;5.85;;;9.50;99.90;;;;;;5066168;28;20102;-78
2022/04/29 08:10:07;;;;;;;17.77;5.57;;;9.70;99.90;;;;;;5066811;28;20041;-76
2022/04/29 08:12:33;;;;;;;15.70;6.60;;;9.90;99.90;;;;;;5066870;28;20412;-76
2022/04/29 08:14:58;;;;;;;17.20;6.50;;;10.00;99.90;;;;;;5065801;28;20131;-75
2022/04/29 08:17:25;;;;;;;13.45;6.03;;;10.10;99.90;;;;;;5066836;28;20105;-75
2022/04/29 08:19:52;;;;;;;15.25;6.30;;;10.10;99.90;;;;;;5066366;28;20481;-78
2022/04/29 08:22:19;;;;;;;15.98;5.07;;;9.90;99.90;;;;;;5063144;28;20102;-77
2022/04/29 08:24:45;;;;;;;15.73;5.68;;;10.00;99.90;;;;;;5052730;28;20053;-76
2022/04/29 08:27:12;;;;;;;18.42;5.57;;;10.30;99.90;;;;;;5068326;28;20044;-75
2022/04/29 08:29:38;;;;;;;11.77;4.60;;;10.50;99.90;;;;;;5052649;28;20053;-77
2022/04/29 08:32:05;;;;;;;16.50;5.75;;;10.50;99.90;;;;;;5052965;28;20174;-75
2022/04/29 08:34:31;;;;;;;13.85;5.82;;;10.50;99.90;;;;;;5053857;28;20124;-77
2022/04/29 08:36:57;;;;;;;15.65;4.95;;;10.40;99.90;;;;;;5051278;28;20115;-74
2022/04/29 08:39:23;;;;;;;10.88;4.45;;;10.70;99.90;;;;;;5053430;28;20048;-78
2022/04/29 08:41:51;;;;;;;11.35;4.35;;;11.10;99.90;;;;;;5035465;28;20433;-76
2022/04/29 08:44:19;;;;;;;20.20;5.80;;;11.30;99.90;;;;;;5052974;28;20052;-77
2022/04/29 08:46:45;;;;;;;11.60;5.10;;;11.10;99.90;;;;;;5051945;28;20428;-76
2022/04/29 08:49:11;;;;;;;14.15;4.65;;;11.40;99.90;;;;;;5035421;28;20056;-76
2022/04/29 08:51:40;;;;;;;10.27;4.68;;;11.70;99.90;;;;;;5051367;28;20456;-74
2022/04/29 08:54:06;;;;;;;12.18;5.13;;;11.90;99.90;;;;;;5053000;28;20095;-77
2022/04/29 08:59:20;;;;;;;14.30;5.47;;;11.80;99.90;;;;;;5090570;28;20488;-76
2022/04/29 09:01:46;;;;;;;14.50;5.65;;;12.10;99.90;;;;;;5072419;28;20048;-75
2022/04/29 09:04:11;;;;;;;15.20;4.20;;;11.50;99.90;;;;;;5071538;28;20051;-76
2022/04/29 09:06:50;;;;;;;10.45;4.47;;;11.80;99.90;;;;;;5071472;28;20071;-78
2022/04/29 09:09:21;;;;;;;12.35;4.30;;;12.00;99.90;;;;;;5054248;28;20464;-77
2022/04/29 09:11:47;;;;;;;11.40;4.65;;;11.90;99.90;;;;;;5072217;28;20522;-75
2022/04/29 09:14:24;;;;;;;9.82;4.82;;;11.50;99.90;;;;;;5071062;28;20128;-74
2022/04/29 09:16:50;;;;;;;;;;;11.90;99.90;;;;;;5064485;28;20036;-75
2022/04/29 09:19:32;;;;;;;10.40;4.73;;;12.10;99.90;;;;;;5051268;28;20023;-73
2022/04/29 09:22:07;;;;;;;11.50;5.25;;;12.30;99.90;;;;;;5051092;28;20298;-74
2022/04/29 09:24:34;;;;;;;14.05;6.13;;;12.00;99.90;;;;;;5035172;28;20041;-75
2022/04/29 09:27:01;;;;;;;10.55;4.82;;;11.70;99.90;;;;;;5052311;28;20503;-76
2022/04/29 09:29:28;;;;;;;8.45;4.40;;;12.20;99.90;;;;;;5052757;28;20400;-77
2022/04/29 09:32:00;;;;;;;9.80;4.03;;;12.40;99.90;;;;;;5051027;28;20492;-76
2022/04/29 09:34:58;;;;;;;12.25;5.70;;;12.30;99.90;;;;;;5052284;28;20048;-78
2022/04/29 09:37:27;;;;;;;14.00;4.28;;;11.70;99.90;;;;;;5050516;28;20048;-75
2022/04/29 09:40:00;;;;;;;9.30;4.72;;;12.30;99.90;;;;;;5051768;28;20049;-76
2022/04/29 09:42:45;;;;;;;11.45;5.93;;;12.30;99.90;;;;;;5051684;28;20047;-75
2022/04/29 09:45:21;;;;;;;12.00;4.85;;;11.90;99.90;;;;;;5052010;28;20049;-73
2022/04/29 09:47:53;;;;;;;10.60;5.05;;;12.30;99.90;;;;;;5051978;28;20138;-75
2022/04/29 09:50:19;;;;;;;10.18;4.60;;;12.50;99.90;;;;;;5051969;28;20052;-76
2022/04/29 09:52:45;;;;;;;15.40;5.85;;;12.70;99.90;;;;;;5049734;28;20187;-75
2022/04/29 09:55:18;;;;;;;9.15;4.45;;;12.60;99.90;;;;;;5052025;28;20052;-75
2022/04/29 09:57:56;;;;;;;11.90;4.90;;;12.50;99.90;;;;;;5051957;28;20056;-74
2022/04/29 10:00:22;;;;;;;9.70;4.47;;;13.10;99.90;;;;;;5050747;28;20049;-76
2022/04/29 10:02:49;;;;;;;10.35;4.60;;;12.80;99.90;;;;;;5052057;28;20036;-76
2022/04/29 10:05:15;;;;;;;10.80;5.23;;;13.10;99.90;;;;;;5051898;28;20055;-75
2022/04/29 10:07:42;;;;;;;12.65;4.50;;;12.10;99.90;;;;;;5050636;28;20291;-77
2022/04/29 10:10:09;;;;;;;13.85;4.78;;;12.30;99.90;;;;;;5052097;28;20049;-74
2022/04/29 10:12:35;;;;;;;10.27;5.25;;;12.10;99.90;;;;;;5050853;28;20539;-75
2022/04/29 10:15:06;;;;;;;13.53;5.50;;;12.10;99.90;;;;;;5050879;28;20092;-74
2022/04/29 10:23:05;;;;;;;10.10;4.68;;;12.30;99.90;;;;;;5050529;28;20132;-75
2022/04/29 10:25:32;;;;;;;12.43;5.68;;;12.10;99.90;;;;;;5051886;28;20049;-76
2022/04/29 10:28:00;;;;;;;11.85;4.75;;;11.80;99.90;;;;;;5051281;28;20094;-75
2022/04/29 10:30:37;;;;;;;11.85;5.28;;;12.40;99.90;;;;;;5051311;28;20052;-73
2022/04/29 10:33:24;;;;;;;10.93;4.28;;;11.80;99.90;;;;;;5033376;28;20041;-74
2022/04/29 10:35:56;;;;;;;11.00;4.72;;;12.00;99.90;;;;;;5032652;28;20049;-74
2022/04/29 10:38:25;;;;;;;10.98;4.63;;;11.80;99.90;;;;;;5051122;28;20120;-75
2022/04/29 10:41:06;;;;;;;9.13;3.85;;;11.90;99.90;;;;;;5051324;28;20052;-75
2022/04/29 10:43:36;;;;;;;12.68;4.22;;;12.20;99.90;;;;;;5049911;28;20056;-74
2022/04/29 10:46:04;;;;;;;12.30;5.15;;;12.20;99.90;;;;;;5049711;28;20432;-76
2022/04/29 10:48:37;;;;;;;8.15;4.22;;;12.00;99.90;;;;;;5054707;28;20059;-78
2022/04/29 10:51:25;;;;;;;11.90;4.65;;;12.00;99.90;;;;;;5070122;28;20052;-74
2022/04/29 10:53:55;;;;;;;16.92;4.50;;;12.00;99.90;;;;;;5071627;28;20049;-76
2022/04/29 10:56:30;;;;;;;8.35;4.45;;;11.80;99.90;;;;;;5070515;28;20398;-76
2022/04/29 10:59:10;;;;;;;14.77;5.30;;;12.10;99.90;;;;;;5068983;28;20059;-75
2022/04/29 11:01:38;;;;;;;10.60;4.55;;;11.90;99.90;;;;;;5033043;28;20517;-76
2022/04/29 11:04:16;;;;;;;11.10;4.00;;;12.20;99.90;;;;;;5050365;28;20049;-75
2022/04/29 11:06:45;;;;;;;9.63;3.83;;;12.10;99.90;;;;;;5049512;28;20111;-76
2022/04/29 11:09:35;;;;;;;10.73;3.67;;;12.50;99.90;;;;;;5033772;28;20122;-75
2022/04/29 11:12:02;;;;;;;9.27;3.50;;;12.70;99.30;;;;;;5050596;28;20060;-78
2022/04/29 11:14:29;;;;;;;8.73;3.83;;;12.90;99.50;;;;;;5051058;28;20045;-77
2022/04/29 11:16:56;;;;;;;9.50;3.67;;;12.30;98.40;;;;;;5050776;28;20163;-77
2022/04/29 11:19:25;;;;;;;9.55;3.70;;;12.50;99.50;;;;;;5050878;28;20041;-78
2022/04/29 11:24:44;;;;;;;7.85;3.40;;;13.00;99.30;;;;;;5051076;28;20092;-74
2022/04/29 11:27:10;;;;;;;;;;;13.00;97.90;;;;;;5049867;28;20458;-77
2022/04/29 11:29:46;;;;;;;9.67;3.33;;;13.30;98.40;;;;;;5049958;28;20003;-74
2022/04/29 11:32:13;;;;;;;10.60;4.15;;;13.50;97.80;;;;;;5050898;28;20041;-76
2022/04/29 11:34:56;;;;;;;14.18;3.78;;;12.90;97.20;;;;;;5051377;28;20045;-77
2022/04/29 11:37:23;;;;;;;7.57;3.22;;;13.20;97.80;;;;;;5049240;28;20049;-74
2022/04/29 11:39:50;;;;;;;;;;;13.20;98.00;;;;;;5050290;28;20060;-76
2022/04/29 11:42:19;;;;;;;;;;;13.00;98.20;;;;;;5050546;28;19924;-72
2022/04/29 11:44:45;;;;;;;9.00;3.22;;;13.00;96.60;;;;;;5066833;28;19961;-77
2022/04/29 11:47:12;;;;;;;11.80;3.67;;;13.40;97.80;;;;;;5050773;28;20106;-77
2022/04/29 11:49:38;;;;;;;10.60;3.03;;;13.60;96.40;;;;;;5049783;28;20108;-77
2022/04/29 11:52:20;;;;;;;8.20;3.10;;;13.60;96.90;;;;;;5048248;28;20115;-76
2022/04/29 11:55:26;;;;;;;9.30;3.50;;;13.40;97.00;;;;;;5051063;28;20120;-78
2022/04/29 11:57:54;;;;;;;10.00;3.80;;;13.20;97.80;;;;;;5050244;28;20053;-77
2022/04/29 12:00:28;;;;;;;7.72;3.50;;;13.60;97.30;;;;;;5068165;28;20051;-75
2022/04/29 12:02:55;;;;;;;8.00;4.38;;;13.30;96.80;;;;;;5056527;28;20055;-75
2022/04/29 12:05:28;;;;;;;;;;;12.60;97.40;;;;;;5073270;28;20110;-74
2022/04/29 12:07:59;;;;;;;7.72;3.70;;;12.60;97.50;;;;;;5072726;28;19921;-75
2022/04/29 12:10:27;;;;;;;6.50;3.42;;;12.60;97.30;;;;;;5058362;28;20057;-74
2022/04/29 12:13:00;;;;;;;11.93;3.75;;;12.60;98.10;;;;;;5053653;28;20405;-77
2022/04/29 12:15:32;;;;;;;9.85;3.58;;;13.10;98.10;;;;;;5052923;28;20053;-76
2022/04/29 12:18:09;;;;;;;11.25;4.32;;;12.80;96.60;;;;;;5053776;28;20044;-75
2022/04/29 12:20:37;;;;;;;10.55;3.85;;;12.50;97.00;;;;;;5036196;28;20049;-74
2022/04/29 12:23:22;;;;;;;10.88;4.50;;;12.60;97.50;;;;;;5052384;28;20071;-76
2022/04/29 12:25:48;;;;;;;9.38;3.97;;;12.70;97.50;;;;;;5053990;28;20056;-75
2022/04/29 12:28:22;;;;;;;7.73;4.10;;;12.50;98.00;;;;;;5069713;28;20052;-76
2022/04/29 12:37:00;;;;;;;9.70;4.22;;;13.20;96.80;;;;;;5051692;28;20126;-75
2022/04/29 12:39:36;;;;;;;9.80;4.13;;;13.00;97.20;;;;;;5052255;28;20082;-79
2022/04/29 12:42:13;;;;;;;9.33;3.60;;;13.30;96.70;;;;;;5052421;28;20048;-76
2022/04/29 12:47:42;;;;;;;12.52;4.47;;;13.30;95.30;;;;;;5051815;28;20280;-74
2022/04/29 12:50:46;;;;;;;10.95;5.30;;;13.20;95.40;;;;;;5054197;28;20049;-77
2022/04/29 12:53:17;;;;;;;11.77;4.85;;;12.70;95.60;;;;;;5051328;28;20053;-79
2022/04/29 12:55:42;;;;;;;12.68;6.13;;;13.00;96.50;;;;;;5052006;28;20454;-78
2022/04/29 12:58:14;;;;;;;11.30;5.00;;;12.40;96.40;;;;;;5052937;28;20056;-76
2022/04/29 13:00:42;;;;;;;12.65;4.95;;;13.10;97.00;;;;;;5052133;28;20045;-75
2022/04/29 13:03:30;;;;;;;9.65;5.10;;;13.00;96.20;;;;;;5051957;28;20041;-76
2022/04/29 13:05:58;;;;;;;12.20;5.97;;;13.00;95.00;;;;;;5051165;28;20106;-75
2022/04/29 13:08:24;;;;;;;14.02;5.90;;;12.70;95.60;;;;;;5053229;28;20044;-74
2022/04/29 13:10:55;;;;;;;10.23;4.63;;;12.90;95.90;;;;;;5052762;28;20063;-77
2022/04/29 13:13:24;;;;;;;11.82;5.40;;;13.20;96.30;;;;;;5051667;28;20065;-76
2022/04/29 13:15:50;;;;;;;11.73;6.30;;;13.10;95.90;;;;;;5051299;28;20053;-75
2022/04/29 13:18:18;;;;;;;12.40;5.80;;;12.70;95.40;;;;;;5052889;28;20049;-77
2022/04/29 13:20:44;;;;;;;11.45;6.03;;;13.10;96.30;;;;;;5052661;28;20092;-75
2022/04/29 13:23:11;;;;;;;11.50;5.33;;;12.60;95.50;;;;;;5051509;28;20041;-73